createdAt,value
2018-08-12T00:00:04.933Z,44
2018-08-12T00:00:55.017Z,43.9
2018-08-12T00:01:45.328Z,43.9
2018-08-12T00:02:35.447Z,43.9
2018-08-12T00:03:24.962Z,43.9
2018-08-12T00:04:15.586Z,43.9
2018-08-12T00:05:04.500Z,43.9
2018-08-12T00:05:55.703Z,43.9
2018-08-12T00:06:45.425Z,43.9
2018-08-12T00:07:35.480Z,43.9
2018-08-12T00:08:26.119Z,43.8
2018-08-12T00:09:15.668Z,43.8
2018-08-12T00:10:20.062Z,43.8
2018-08-12T00:10:55.179Z,43.8
2018-08-12T00:11:45.827Z,43.8
2018-08-12T00:12:35.643Z,43.8
2018-08-12T00:13:26.460Z,43.8
2018-08-12T00:14:16.018Z,43.8
2018-08-12T00:15:06.580Z,43.8
2018-08-12T00:15:56.698Z,43.8
2018-08-12T00:16:45.944Z,43.8
2018-08-12T00:17:36.358Z,43.8
2018-08-12T00:18:26.377Z,43.8
2018-08-12T00:37:19.464Z,43.6
2018-08-12T00:38:10.029Z,43.6
2018-08-12T00:39:00.309Z,43.6
2018-08-12T00:39:50.098Z,43.6
2018-08-12T00:40:39.581Z,43.6
2018-08-12T00:41:30.175Z,43.6
2018-08-12T00:42:20.529Z,43.6
2018-08-12T00:43:10.615Z,43.6
2018-08-12T00:44:00.687Z,43.6
2018-08-12T00:44:49.289Z,43.6
2018-08-12T00:45:40.778Z,43.6
2018-08-12T00:46:30.856Z,43.6
2018-08-12T00:47:20.080Z,43.5
2018-08-12T00:48:10.795Z,43.5
2018-08-12T00:49:00.484Z,43.5
2018-08-12T00:49:50.567Z,43.5
2018-08-12T00:50:41.186Z,43.5
2018-08-12T00:51:31.245Z,43.5
2018-08-12T00:52:21.425Z,43.5
2018-08-12T00:53:11.137Z,43.5
2018-08-12T00:54:01.160Z,43.4
2018-08-12T00:54:51.499Z,43.4
2018-08-12T00:55:41.557Z,43.5
2018-08-12T00:56:31.365Z,43.4
2018-08-12T00:57:20.852Z,43.4
2018-08-12T00:58:10.914Z,43.4
2018-08-12T00:59:00.681Z,43.4
2018-08-12T00:59:51.319Z,43.4
2018-08-12T01:00:41.633Z,43.4
2018-08-12T01:01:30.554Z,43.4
2018-08-12T01:02:21.821Z,43.4
2018-08-12T01:03:11.013Z,43.4
2018-08-12T01:04:01.619Z,43.4
2018-08-12T01:04:51.978Z,43.4
2018-08-12T01:05:42.016Z,43.4
2018-08-12T01:06:31.818Z,43.4
2018-08-12T01:07:21.866Z,43.3
2018-08-12T01:08:12.479Z,43.3
2018-08-12T01:09:02.286Z,43.3
2018-08-12T01:09:52.152Z,43.3
2018-08-12T01:10:42.180Z,43.3
2018-08-12T01:11:32.513Z,43.3
2018-08-12T01:12:22.264Z,43.3
2018-08-12T01:13:12.614Z,43.3
2018-08-12T01:14:02.676Z,43.3
2018-08-12T01:14:51.674Z,43.3
2018-08-12T01:15:42.247Z,43.3
2018-08-12T01:16:32.832Z,43.3
2018-08-12T01:17:22.897Z,43.3
2018-08-12T01:18:12.968Z,43.3
2018-08-12T01:19:03.055Z,43.3
2018-08-12T01:19:52.293Z,43.3
2018-08-12T01:20:43.477Z,43.3
2018-08-12T01:21:32.971Z,43.3
2018-08-12T01:22:23.323Z,43.3
2018-08-12T01:23:13.497Z,43.3
2018-08-12T01:24:03.172Z,43.2
2018-08-12T01:24:52.966Z,43.2
2018-08-12T01:25:43.021Z,43.2
2018-08-12T01:26:33.355Z,43.2
2018-08-12T01:27:23.472Z,43.2
2018-08-12T01:28:13.503Z,43.2
2018-08-12T01:29:04.163Z,43.2
2018-08-12T01:29:53.625Z,43.2
2018-08-12T01:30:44.328Z,43.2
2018-08-12T01:31:34.345Z,43.2
2018-08-12T01:32:24.093Z,43.2
2018-08-12T01:33:14.440Z,43.1
2018-08-12T01:34:04.223Z,43.1
2018-08-12T01:34:54.293Z,43.1
2018-08-12T01:35:44.375Z,43.1
2018-08-12T01:36:34.140Z,43.1
2018-08-12T01:37:24.507Z,43.1
2018-08-12T01:38:14.411Z,43.1
2018-08-12T01:39:04.057Z,43.1
2018-08-12T01:39:54.656Z,43.1
2018-08-12T01:40:44.726Z,43.1
2018-08-12T01:41:34.221Z,43.1
2018-08-12T01:42:24.264Z,43.1
2018-08-12T01:43:14.921Z,43.1
2018-08-12T01:44:05.186Z,43.1
2018-08-12T01:44:54.840Z,43.1
2018-08-12T01:45:44.549Z,43.1
2018-08-12T01:46:34.926Z,43.1
2018-08-12T01:47:24.929Z,43
2018-08-12T01:48:15.606Z,43.1
2018-08-12T01:49:05.143Z,43.1
2018-08-12T01:49:55.106Z,43
2018-08-12T01:50:45.446Z,43
2018-08-12T01:51:35.868Z,43
2018-08-12T01:52:25.901Z,43
2018-08-12T01:53:15.413Z,43
2018-08-12T01:54:05.754Z,43
2018-08-12T01:54:55.303Z,42.9
2018-08-12T01:55:45.598Z,42.9
2018-08-12T01:56:36.066Z,42.9
2018-08-12T01:57:26.019Z,42.9
2018-08-12T01:58:16.378Z,42.9
2018-08-12T01:59:06.160Z,42.9
2018-08-12T01:59:55.399Z,42.9
2018-08-12T02:00:46.290Z,42.9
2018-08-12T02:01:36.610Z,42.9
2018-08-12T02:02:26.398Z,42.9
2018-08-12T02:03:16.454Z,42.9
2018-08-12T02:04:06.008Z,42.9
2018-08-12T02:04:56.001Z,42.9
2018-08-12T02:05:46.677Z,42.9
2018-08-12T02:06:36.750Z,42.9
2018-08-12T02:07:26.590Z,42.9
2018-08-12T02:08:17.129Z,42.9
2018-08-12T02:09:06.392Z,42.9
2018-08-12T02:09:56.986Z,42.9
2018-08-12T02:10:47.066Z,42.9
2018-08-12T02:11:36.531Z,42.9
2018-08-12T02:12:26.909Z,42.8
2018-08-12T02:13:16.653Z,42.8
2018-08-12T02:14:07.577Z,42.8
2018-08-12T02:14:56.253Z,42.8
2018-08-12T02:15:46.885Z,42.8
2018-08-12T02:16:37.485Z,42.8
2018-08-12T02:17:27.240Z,42.8
2018-08-12T02:18:17.354Z,42.8
2018-08-12T02:19:07.379Z,42.8
2018-08-12T02:19:56.885Z,42.8
2018-08-12T02:20:47.829Z,42.8
2018-08-12T02:21:37.000Z,42.8
2018-08-12T02:22:27.353Z,42.8
2018-08-12T02:23:16.302Z,42.8
2018-08-12T02:24:08.452Z,42.8
2018-08-12T02:24:57.335Z,42.8
2018-08-12T02:25:47.629Z,42.8
2018-08-12T02:26:38.305Z,42.7
2018-08-12T02:27:28.088Z,42.7
2018-08-12T02:28:18.377Z,42.7
2018-08-12T02:29:08.147Z,42.7
2018-08-12T02:29:58.791Z,42.7
2018-08-12T02:30:48.572Z,42.7
2018-08-12T02:31:38.340Z,42.7
2018-08-12T02:32:28.799Z,42.7
2018-08-12T02:33:18.544Z,42.7
2018-08-12T02:34:08.574Z,42.7
2018-08-12T02:34:58.911Z,42.6
2018-08-12T02:35:48.974Z,42.6
2018-08-12T02:36:39.076Z,42.6
2018-08-12T02:37:28.552Z,42.6
2018-08-12T02:38:19.444Z,42.6
2018-08-12T02:39:09.229Z,42.6
2018-08-12T02:39:59.570Z,42.6
2018-08-12T02:40:49.371Z,42.6
2018-08-12T02:41:39.433Z,42.6
2018-08-12T02:42:29.520Z,42.6
2018-08-12T02:43:19.601Z,42.6
2018-08-12T02:44:09.328Z,42.6
2018-08-12T02:44:59.983Z,42.6
2018-08-12T02:45:49.879Z,42.6
2018-08-12T02:46:40.247Z,42.6
2018-08-12T02:47:29.929Z,42.6
2018-08-12T02:48:19.974Z,42.6
2018-08-12T02:49:09.731Z,42.6
2018-08-12T02:50:00.200Z,42.6
2018-08-12T02:50:49.836Z,42.6
2018-08-12T02:51:40.175Z,42.6
2018-08-12T02:52:30.234Z,42.6
2018-08-12T02:53:19.988Z,42.5
2018-08-12T02:54:10.373Z,42.6
2018-08-12T02:55:00.766Z,42.5
2018-08-12T02:55:49.947Z,42.5
2018-08-12T02:56:40.298Z,42.5
2018-08-12T02:57:30.317Z,42.4
2018-08-12T02:58:20.132Z,42.5
2018-08-12T02:59:09.915Z,42.5
2018-08-12T03:00:00.312Z,42.5
2018-08-12T03:00:50.900Z,42.5
2018-08-12T03:01:41.204Z,42.5
2018-08-12T03:02:30.435Z,42.5
2018-08-12T03:03:20.766Z,42.5
2018-08-12T03:04:11.132Z,42.5
2018-08-12T03:05:01.454Z,42.4
2018-08-12T03:05:51.365Z,42.4
2018-08-12T03:06:41.619Z,42.4
2018-08-12T03:07:31.098Z,42.4
2018-08-12T03:08:21.436Z,42.4
2018-08-12T03:09:10.967Z,42.4
2018-08-12T03:10:01.897Z,42.4
2018-08-12T03:10:51.655Z,42.4
2018-08-12T03:11:40.568Z,42.4
2018-08-12T03:12:31.493Z,42.4
2018-08-12T03:13:21.289Z,42.4
2018-08-12T03:14:11.658Z,42.4
2018-08-12T03:15:02.282Z,42.4
2018-08-12T03:15:52.339Z,42.4
2018-08-12T03:16:41.838Z,42.4
2018-08-12T03:17:32.406Z,42.4
2018-08-12T03:18:21.960Z,42.4
2018-08-12T03:19:12.300Z,42.4
2018-08-12T03:20:01.326Z,42.4
2018-08-12T03:20:51.234Z,42.4
2018-08-12T03:21:41.658Z,42.4
2018-08-12T03:22:33.906Z,42.4
2018-08-12T03:23:22.634Z,42.3
2018-08-12T03:24:12.708Z,42.3
2018-08-12T03:25:01.885Z,42.3
2018-08-12T03:25:52.855Z,42.3
2018-08-12T03:26:42.296Z,42.3
2018-08-12T03:27:32.668Z,42.3
2018-08-12T03:28:22.973Z,42.3
2018-08-12T03:29:12.206Z,42.3
2018-08-12T03:30:04.220Z,42.3
2018-08-12T03:30:53.176Z,42.3
2018-08-12T03:31:41.811Z,42.3
2018-08-12T03:32:31.863Z,42.3
2018-08-12T03:33:23.411Z,42.3
2018-08-12T03:34:13.438Z,42.3
2018-08-12T03:35:03.780Z,42.3
2018-08-12T03:35:53.309Z,42.3
2018-08-12T03:36:43.918Z,42.2
2018-08-12T03:37:33.712Z,42.3
2018-08-12T03:38:23.729Z,42.3
2018-08-12T03:39:12.992Z,42.2
2018-08-12T03:40:04.110Z,42.3
2018-08-12T03:40:54.245Z,42.2
2018-08-12T03:41:44.255Z,42.2
2018-08-12T03:42:34.342Z,42.2
2018-08-12T03:43:23.838Z,42.2
2018-08-12T03:44:14.512Z,42.2
2018-08-12T03:45:04.325Z,42.2
2018-08-12T03:45:54.030Z,42.2
2018-08-12T03:46:44.744Z,42.2
2018-08-12T03:47:34.752Z,42.2
2018-08-12T03:48:24.502Z,42.2
2018-08-12T03:49:14.310Z,42.1
2018-08-12T03:50:04.666Z,42.1
2018-08-12T03:50:55.050Z,42.1
2018-08-12T03:51:44.176Z,42.1
2018-08-12T03:52:34.558Z,42.1
2018-08-12T03:53:25.196Z,42.1
2018-08-12T03:54:15.222Z,42.1
2018-08-12T03:55:05.055Z,42.1
2018-08-12T03:55:55.068Z,42.1
2018-08-12T03:56:45.469Z,42.1
2018-08-12T03:57:35.242Z,42.1
2018-08-12T03:58:24.426Z,42.1
2018-08-12T03:59:15.085Z,42.1
2018-08-12T04:00:05.166Z,42.1
2018-08-12T04:00:55.468Z,42.1
2018-08-12T04:01:45.238Z,42.1
2018-08-12T04:02:35.593Z,42.1
2018-08-12T04:03:25.644Z,42.1
2018-08-12T04:04:14.866Z,42.1
2018-08-12T04:05:05.797Z,42.1
2018-08-12T04:05:55.553Z,42.1
2018-08-12T04:06:46.196Z,42.1
2018-08-12T04:07:35.400Z,42
2018-08-12T04:08:26.291Z,42
2018-08-12T04:09:15.814Z,42
2018-08-12T04:10:06.454Z,42
2018-08-12T04:10:55.637Z,42
2018-08-12T04:11:46.543Z,42
2018-08-12T04:12:36.595Z,42
2018-08-12T04:13:26.395Z,42
2018-08-12T04:14:16.737Z,42
2018-08-12T04:15:06.809Z,42
2018-08-12T04:15:56.573Z,41.9
2018-08-12T04:16:46.474Z,42
2018-08-12T04:17:36.722Z,42
2018-08-12T04:18:26.527Z,41.9
2018-08-12T04:19:16.329Z,41.9
2018-08-12T04:20:06.202Z,41.9
2018-08-12T04:20:56.991Z,41.9
2018-08-12T04:21:47.372Z,41.9
2018-08-12T04:22:37.431Z,41.9
2018-08-12T04:23:27.206Z,41.9
2018-08-12T04:24:17.532Z,41.9
2018-08-12T04:25:07.592Z,41.9
2018-08-12T04:25:57.135Z,41.9
2018-08-12T04:26:47.722Z,41.9
2018-08-12T04:27:37.504Z,41.9
2018-08-12T04:28:27.293Z,41.9
2018-08-12T04:29:17.940Z,41.9
2018-08-12T04:30:08.003Z,41.9
2018-08-12T04:30:57.507Z,41.9
2018-08-12T04:31:47.887Z,41.9
2018-08-12T04:32:37.305Z,41.9
2018-08-12T04:33:27.757Z,41.8
2018-08-12T04:34:18.340Z,41.8
2018-08-12T04:35:08.355Z,41.8
2018-08-12T04:35:58.167Z,41.9
2018-08-12T04:36:48.512Z,41.9
2018-08-12T04:37:38.354Z,41.8
2018-08-12T04:38:27.197Z,41.8
2018-08-12T04:39:18.131Z,41.8
2018-08-12T04:40:07.299Z,41.8
2018-08-12T04:40:58.557Z,41.8
2018-08-12T04:41:47.750Z,41.8
2018-08-12T04:42:37.839Z,41.8
2018-08-12T04:43:28.156Z,41.8
2018-08-12T04:44:17.921Z,41.8
2018-08-12T04:45:08.289Z,41.8
2018-08-12T04:45:59.748Z,41.8
2018-08-12T04:46:48.431Z,41.8
2018-08-12T04:47:39.059Z,41.8
2018-08-12T04:48:29.164Z,41.8
2018-08-12T05:06:43.562Z,41.6
2018-08-12T05:07:33.427Z,41.6
2018-08-12T05:08:22.296Z,41.6
2018-08-12T05:09:14.009Z,41.6
2018-08-12T05:10:04.165Z,41.6
2018-08-12T05:10:54.162Z,41.6
2018-08-12T05:11:43.974Z,41.6
2018-08-12T05:12:34.288Z,41.6
2018-08-12T05:13:24.306Z,41.6
2018-08-12T05:14:14.407Z,41.6
2018-08-12T05:15:03.605Z,41.6
2018-08-12T05:15:54.237Z,41.6
2018-08-12T05:16:43.183Z,41.6
2018-08-12T05:17:34.088Z,41.6
2018-08-12T05:18:24.194Z,41.6
2018-08-12T05:19:14.850Z,41.6
2018-08-12T05:20:03.750Z,41.6
2018-08-12T05:20:53.763Z,41.6
2018-08-12T05:21:44.727Z,41.6
2018-08-12T05:22:35.018Z,41.6
2018-08-12T05:23:25.167Z,41.6
2018-08-12T05:24:14.031Z,41.6
2018-08-12T05:25:05.280Z,41.5
2018-08-12T05:25:55.037Z,41.5
2018-08-12T05:26:45.340Z,41.5
2018-08-12T05:27:34.917Z,41.5
2018-08-12T05:28:24.743Z,41.5
2018-08-12T05:29:15.544Z,41.5
2018-08-12T05:30:05.369Z,41.5
2018-08-12T05:30:55.405Z,41.5
2018-08-12T05:31:45.519Z,41.5
2018-08-12T05:32:34.150Z,41.5
2018-08-12T05:33:25.305Z,41.5
2018-08-12T05:34:15.613Z,41.5
2018-08-12T05:35:05.203Z,41.5
2018-08-12T05:35:55.773Z,41.5
2018-08-12T05:36:45.867Z,41.5
2018-08-12T05:37:35.970Z,41.5
2018-08-12T05:38:25.653Z,41.4
2018-08-12T05:39:14.979Z,41.4
2018-08-12T05:40:05.512Z,41.4
2018-08-12T05:40:56.482Z,41.4
2018-08-12T05:41:45.939Z,41.4
2018-08-12T05:42:35.989Z,41.4
2018-08-12T05:43:26.104Z,41.4
2018-08-12T05:44:16.110Z,41.4
2018-08-12T05:45:05.436Z,41.4
2018-08-12T05:45:56.795Z,41.4
2018-08-12T05:46:46.578Z,41.4
2018-08-12T05:47:36.668Z,41.4
2018-08-12T05:48:26.503Z,41.4
2018-08-12T05:49:16.478Z,41.4
2018-08-12T05:50:06.582Z,41.4
2018-08-12T05:50:56.499Z,41.4
2018-08-12T05:51:47.311Z,41.4
2018-08-12T05:52:37.044Z,41.4
2018-08-12T05:53:27.199Z,41.4
2018-08-12T05:54:16.907Z,41.4
2018-08-12T05:55:07.555Z,41.4
2018-08-12T05:55:57.317Z,41.4
2018-08-12T05:56:47.359Z,41.4
2018-08-12T05:57:36.917Z,41.4
2018-08-12T05:58:27.324Z,41.4
2018-08-12T05:59:15.853Z,41.4
2018-08-12T06:00:07.949Z,41.4
2018-08-12T06:00:57.437Z,41.4
2018-08-12T06:01:47.762Z,41.4
2018-08-12T06:02:38.703Z,41.4
2018-08-12T06:03:28.269Z,41.4
2018-08-12T06:04:17.939Z,41.4
2018-08-12T06:05:08.032Z,41.4
2018-08-12T06:05:58.098Z,41.4
2018-08-12T06:06:47.919Z,41.3
2018-08-12T06:07:37.741Z,41.3
2018-08-12T06:08:27.051Z,41.4
2018-08-12T06:09:17.837Z,41.3
2018-08-12T06:10:08.177Z,41.3
2018-08-12T06:10:57.950Z,41.3
2018-08-12T06:11:48.311Z,41.3
2018-08-12T06:12:37.507Z,41.3
2018-08-12T06:13:28.154Z,41.3
2018-08-12T06:14:18.588Z,41.3
2018-08-12T06:15:08.286Z,41.3
2018-08-12T06:15:58.419Z,41.3
2018-08-12T06:16:48.676Z,41.3
2018-08-12T06:17:39.872Z,41.3
2018-08-12T06:18:28.263Z,41.3
2018-08-12T06:19:19.357Z,41.3
2018-08-12T06:20:09.185Z,40.3
2018-08-12T06:20:58.924Z,30.6
2018-08-12T06:21:49.279Z,39.7
2018-08-12T06:22:39.055Z,44.9
2018-08-12T06:23:28.858Z,46.1
2018-08-12T06:24:19.473Z,46.2
2018-08-12T06:25:09.280Z,46
2018-08-12T06:25:59.925Z,45.7
2018-08-12T06:26:49.649Z,45.3
2018-08-12T06:27:39.769Z,45
2018-08-12T06:28:29.909Z,44.8
2018-08-12T06:29:19.289Z,44.6
2018-08-12T06:30:09.926Z,44.4
2018-08-12T06:31:00.299Z,44.3
2018-08-12T06:31:50.122Z,44.2
2018-08-12T06:32:40.217Z,44.1
2018-08-12T06:33:29.332Z,44.1
2018-08-12T06:34:20.356Z,44
2018-08-12T06:35:10.057Z,43.9
2018-08-12T06:35:59.073Z,43.9
2018-08-12T06:36:50.490Z,43.8
2018-08-12T06:37:40.283Z,43.8
2018-08-12T06:38:29.999Z,43.7
2018-08-12T06:39:20.356Z,43.6
2018-08-12T06:40:09.886Z,43.6
2018-08-12T06:41:00.793Z,43.6
2018-08-12T06:41:51.129Z,43.5
2018-08-12T06:42:40.683Z,43.4
2018-08-12T06:43:30.969Z,43.4
2018-08-12T06:44:20.832Z,43.4
2018-08-12T06:45:11.372Z,43.3
2018-08-12T06:46:00.608Z,42.4
2018-08-12T06:46:50.935Z,44.3
2018-08-12T06:47:40.957Z,50.4
2018-08-12T06:49:21.106Z,51.4
2018-08-12T06:50:10.708Z,50.5
2018-08-12T06:51:01.261Z,50.4
2018-08-12T06:51:52.859Z,51.1
2018-08-12T06:52:41.399Z,52.1
2018-08-12T06:53:32.051Z,53
2018-08-12T06:54:21.518Z,53.6
2018-08-12T06:55:11.639Z,53.7
2018-08-12T06:56:00.981Z,53.8
2018-08-12T06:56:51.771Z,53.9
2018-08-12T06:57:41.758Z,54.2
2018-08-12T06:58:32.120Z,54.5
2018-08-12T06:59:21.879Z,54.8
2018-08-12T07:00:11.742Z,55
2018-08-12T07:01:01.998Z,55.2
2018-08-12T07:01:52.355Z,55.3
2018-08-12T07:02:42.764Z,55.4
2018-08-12T07:03:31.429Z,55.4
2018-08-12T07:04:21.827Z,55.4
2018-08-12T07:05:12.448Z,55.5
2018-08-12T07:06:02.504Z,55.6
2018-08-12T07:06:51.990Z,55.8
2018-08-12T07:07:42.296Z,55.9
2018-08-12T07:08:32.086Z,55.9
2018-08-12T07:09:22.235Z,55.9
2018-08-12T07:10:12.842Z,55.9
2018-08-12T07:11:03.085Z,55.9
2018-08-12T07:11:52.864Z,55.9
2018-08-12T07:12:42.918Z,56.1
2018-08-12T07:13:32.481Z,56.2
2018-08-12T07:14:23.181Z,56.4
2018-08-12T07:15:13.145Z,56.5
2018-08-12T07:16:03.258Z,56.6
2018-08-12T07:16:52.940Z,56.6
2018-08-12T07:17:43.124Z,56.8
2018-08-12T07:18:33.926Z,56.9
2018-08-12T07:19:23.731Z,57.1
2018-08-12T07:20:13.788Z,57.3
2018-08-12T07:21:03.564Z,57.4
2018-08-12T07:21:53.874Z,57.5
2018-08-12T07:22:43.422Z,57.4
2018-08-12T07:23:33.529Z,57.4
2018-08-12T07:24:24.089Z,57.6
2018-08-12T07:25:13.887Z,57.8
2018-08-12T07:26:04.281Z,57.9
2018-08-12T07:26:53.989Z,57.7
2018-08-12T07:27:43.511Z,57.5
2018-08-12T07:28:34.431Z,57.4
2018-08-12T07:29:24.251Z,57.6
2018-08-12T07:30:14.796Z,57.8
2018-08-12T07:31:04.349Z,58.1
2018-08-12T07:32:45.393Z,58.8
2018-08-12T07:33:35.132Z,58.8
2018-08-12T07:34:25.150Z,58.7
2018-08-12T07:35:15.201Z,58.5
2018-08-12T07:36:05.014Z,58.3
2018-08-12T07:36:55.035Z,58.2
2018-08-12T07:37:45.420Z,58.1
2018-08-12T07:38:35.513Z,58
2018-08-12T07:39:25.541Z,57.7
2018-08-12T07:40:15.427Z,57.2
2018-08-12T07:41:05.665Z,56.4
2018-08-12T07:41:54.669Z,55.4
2018-08-12T07:42:44.971Z,54.6
2018-08-12T07:43:35.012Z,53.8
2018-08-12T07:44:25.100Z,53.2
2018-08-12T07:45:15.395Z,52.5
2018-08-12T07:46:05.785Z,51.9
2018-08-12T07:46:55.529Z,51
2018-08-12T07:47:45.616Z,50.1
2018-08-12T07:48:35.766Z,49.3
2018-08-12T07:49:25.493Z,48.6
2018-08-12T07:50:15.860Z,47.8
2018-08-12T07:51:05.723Z,47.1
2018-08-12T07:51:56.225Z,46.4
2018-08-12T07:52:46.319Z,45.8
2018-08-12T07:53:36.387Z,45.3
2018-08-12T07:54:26.442Z,44.9
2018-08-12T07:55:16.489Z,44.6
2018-08-12T07:56:06.574Z,44.4
2018-08-12T07:56:56.630Z,44.3
2018-08-12T07:57:46.676Z,44.1
2018-08-12T07:58:36.749Z,44
2018-08-12T07:59:27.098Z,43.8
2018-08-12T08:00:16.342Z,43.6
2018-08-12T08:01:06.896Z,43.3
2018-08-12T08:01:57.248Z,42.9
2018-08-12T08:02:47.306Z,42.6
2018-08-12T08:03:37.084Z,42.3
2018-08-12T08:04:27.150Z,42
2018-08-12T08:05:17.233Z,41.7
2018-08-12T08:06:07.474Z,41.4
2018-08-12T08:06:57.368Z,41.3
2018-08-12T08:07:47.163Z,41.1
2018-08-12T08:08:37.508Z,41.1
2018-08-12T08:09:27.553Z,41
2018-08-12T08:10:17.723Z,40.9
2018-08-12T08:11:07.754Z,40.9
2018-08-12T08:11:57.812Z,40.8
2018-08-12T08:12:48.235Z,40.8
2018-08-12T08:13:37.606Z,40.9
2018-08-12T08:14:28.270Z,41.1
2018-08-12T08:15:17.779Z,41.3
2018-08-12T08:16:07.887Z,41.4
2018-08-12T08:16:57.416Z,41.6
2018-08-12T08:17:48.282Z,41.9
2018-08-12T08:18:38.358Z,42.1
2018-08-12T08:19:28.429Z,42.3
2018-08-12T08:20:18.522Z,42.5
2018-08-12T08:21:08.568Z,42.7
2018-08-12T08:21:58.846Z,42.8
2018-08-12T08:22:47.921Z,43
2018-08-12T08:23:37.919Z,43.2
2018-08-12T08:24:28.295Z,43.4
2018-08-12T08:25:18.317Z,43.5
2018-08-12T08:26:08.697Z,43.8
2018-08-12T08:26:58.460Z,43.9
2018-08-12T08:27:48.283Z,44.1
2018-08-12T08:28:38.137Z,44.2
2018-08-12T08:29:28.334Z,44.3
2018-08-12T08:30:18.761Z,44.4
2018-08-12T08:31:08.920Z,44.4
2018-08-12T08:32:03.278Z,44.5
2018-08-12T08:32:49.117Z,44.5
2018-08-12T08:33:39.719Z,44.6
2018-08-12T08:34:29.848Z,44.7
2018-08-12T08:35:19.858Z,44.8
2018-08-12T08:36:08.579Z,44.9
2018-08-12T08:36:59.404Z,45
2018-08-12T08:37:49.305Z,45.1
2018-08-12T08:38:39.851Z,45.1
2018-08-12T08:39:29.076Z,45.2
2018-08-12T08:40:18.792Z,45.3
2018-08-12T08:41:09.734Z,45.4
2018-08-12T08:42:00.102Z,45.6
2018-08-12T08:42:50.151Z,45.8
2018-08-12T08:43:39.781Z,45.9
2018-08-12T08:44:30.284Z,46
2018-08-12T08:45:20.653Z,46.1
2018-08-12T08:46:10.705Z,46.3
2018-08-12T08:47:00.176Z,46.4
2018-08-12T08:47:50.891Z,46.5
2018-08-12T08:48:40.622Z,46.7
2018-08-12T08:49:30.914Z,46.9
2018-08-12T08:50:20.427Z,47.2
2018-08-12T08:51:10.513Z,47.4
2018-08-12T08:52:00.647Z,47.8
2018-08-12T08:52:50.640Z,48.1
2018-08-12T08:53:39.557Z,48.4
2018-08-12T08:54:31.086Z,48.8
2018-08-12T08:55:19.987Z,49
2018-08-12T08:56:12.251Z,49.3
2018-08-12T08:57:01.069Z,49.6
2018-08-12T08:57:51.354Z,49.9
2018-08-12T08:58:41.083Z,50.3
2018-08-12T08:59:31.768Z,50.7
2018-08-12T09:00:20.922Z,51.1
2018-08-12T09:01:11.735Z,51.5
2018-08-12T09:02:01.412Z,51.9
2018-08-12T09:02:51.694Z,52.1
2018-08-12T09:03:41.496Z,52.4
2018-08-12T09:04:31.602Z,52.8
2018-08-12T09:20:57.818Z,55.2
2018-08-12T09:21:47.166Z,55.4
2018-08-12T09:22:37.955Z,55.4
2018-08-12T09:23:27.547Z,55.6
2018-08-12T09:24:17.623Z,55.9
2018-08-12T09:25:07.873Z,56.3
2018-08-12T09:25:57.443Z,56.4
2018-08-12T09:26:47.967Z,56
2018-08-12T09:27:38.110Z,55.2
2018-08-12T09:28:28.136Z,54.7
2018-08-12T09:29:18.044Z,54.9
2018-08-12T09:30:07.998Z,55.8
2018-08-12T09:30:57.834Z,56.6
2018-08-12T09:31:47.839Z,56.6
2018-08-12T09:32:38.200Z,56.6
2018-08-12T09:33:28.337Z,56.9
2018-08-12T09:34:17.812Z,57.4
2018-08-12T09:35:08.967Z,57.9
2018-08-12T09:35:58.715Z,58.3
2018-08-12T09:37:38.842Z,58.8
2018-08-12T09:38:29.215Z,59
2018-08-12T09:39:19.312Z,59.3
2018-08-12T09:40:08.496Z,59.5
2018-08-12T09:40:59.415Z,59.6
2018-08-12T09:41:48.379Z,59.7
2018-08-12T09:42:39.527Z,59.8
2018-08-12T09:43:29.663Z,59.9
2018-08-12T09:44:19.526Z,60.1
2018-08-12T09:45:08.890Z,60.3
2018-08-12T09:45:58.983Z,60.3
2018-08-12T09:46:49.595Z,60.3
2018-08-12T09:47:38.812Z,60.1
2018-08-12T09:48:29.436Z,60.1
2018-08-12T09:49:19.314Z,60
2018-08-12T09:50:10.129Z,59.6
2018-08-12T09:50:59.646Z,58.8
2018-08-12T09:51:52.213Z,58.2
2018-08-12T09:52:40.061Z,57.6
2018-08-12T09:53:29.050Z,57.1
2018-08-12T09:54:19.933Z,56.8
2018-08-12T09:55:09.693Z,56.9
2018-08-12T09:56:00.580Z,57.6
2018-08-12T09:56:50.600Z,57.8
2018-08-12T09:57:40.427Z,57.4
2018-08-12T09:58:31.433Z,57.5
2018-08-12T09:59:20.542Z,58.4
2018-08-12T10:00:10.983Z,59.4
2018-08-12T10:01:00.106Z,60.2
2018-08-12T10:01:50.734Z,60.7
2018-08-12T10:02:40.804Z,61.2
2018-08-12T10:03:31.134Z,61.5
2018-08-12T10:04:20.979Z,61.6
2018-08-12T10:05:10.241Z,61.5
2018-08-12T10:06:00.800Z,60.6
2018-08-12T10:06:51.167Z,59.6
2018-08-12T10:07:42.055Z,58.7
2018-08-12T10:08:31.071Z,57.9
2018-08-12T10:09:20.347Z,57.4
2018-08-12T10:10:11.208Z,57
2018-08-12T10:11:01.217Z,56.6
2018-08-12T10:11:50.753Z,56.5
2018-08-12T10:12:41.933Z,57.3
2018-08-12T10:13:31.414Z,58.6
2018-08-12T10:14:21.735Z,59.9
2018-08-12T10:15:11.815Z,60.6
2018-08-12T10:16:01.604Z,61
2018-08-12T10:16:50.530Z,61.3
2018-08-12T10:17:41.181Z,61.5
2018-08-12T10:18:32.315Z,61.8
2018-08-12T10:19:22.389Z,62.2
2018-08-12T10:20:12.150Z,62.5
2018-08-12T10:21:01.770Z,62.8
2018-08-12T10:21:52.567Z,62.9
2018-08-12T10:22:42.685Z,63.1
2018-08-12T10:23:32.694Z,63.3
2018-08-12T10:24:22.266Z,63.4
2018-08-12T10:25:12.282Z,63.6
2018-08-12T10:26:02.338Z,63.7
2018-08-12T10:26:52.191Z,63.9
2018-08-12T10:27:42.480Z,64
2018-08-12T10:28:31.987Z,64.1
2018-08-12T10:29:24.255Z,64.3
2018-08-12T10:30:13.237Z,64.4
2018-08-12T10:31:02.294Z,64.6
2018-08-12T10:31:53.371Z,64.8
2018-08-12T10:32:43.384Z,64.4
2018-08-12T10:33:32.933Z,63.9
2018-08-12T10:34:22.969Z,64.1
2018-08-12T10:35:13.308Z,64.4
2018-08-12T10:36:03.400Z,64.7
2018-08-12T10:36:53.699Z,64.9
2018-08-12T10:37:43.526Z,65.1
2018-08-12T10:38:33.560Z,65.1
2018-08-12T10:39:23.914Z,65.1
2018-08-12T10:40:13.436Z,65.2
2018-08-12T10:41:04.021Z,65.2
2018-08-12T10:41:53.887Z,65.3
2018-08-12T10:42:44.223Z,65.4
2018-08-12T10:43:33.491Z,65.5
2018-08-12T10:44:24.902Z,65.6
2018-08-12T10:45:14.202Z,65.6
2018-08-12T10:46:04.177Z,65.7
2018-08-12T10:46:53.992Z,65.8
2018-08-12T10:47:44.347Z,65.8
2018-08-12T10:48:33.864Z,65.1
2018-08-12T10:49:24.538Z,64.4
2018-08-12T10:50:14.297Z,63.9
2018-08-12T10:51:05.070Z,63.4
2018-08-12T10:51:54.464Z,63.6
2018-08-12T10:52:44.758Z,64.3
2018-08-12T10:53:35.141Z,64.9
2018-08-12T10:54:25.252Z,65.2
2018-08-12T10:55:15.193Z,65.4
2018-08-12T10:56:04.123Z,65.5
2018-08-12T10:56:54.770Z,65.6
2018-08-12T10:57:45.447Z,65.8
2018-08-12T10:58:34.026Z,65.9
2018-08-12T10:59:26.677Z,66.1
2018-08-12T11:00:14.203Z,66.1
2018-08-12T11:01:05.048Z,66.3
2018-08-12T11:01:55.182Z,66.3
2018-08-12T11:02:45.813Z,66.3
2018-08-12T11:03:35.280Z,66.4
2018-08-12T11:04:25.580Z,66.4
2018-08-12T11:05:15.962Z,66.3
2018-08-12T11:06:05.828Z,65.8
2018-08-12T11:06:55.088Z,65.6
2018-08-12T11:07:45.925Z,65.9
2018-08-12T11:08:34.833Z,66.1
2018-08-12T11:09:24.910Z,66.4
2018-08-12T11:10:16.360Z,66.6
2018-08-12T11:11:06.402Z,66.8
2018-08-12T11:11:55.660Z,66.9
2018-08-12T11:12:48.204Z,66.8
2018-08-12T11:13:36.365Z,66.3
2018-08-12T11:14:26.650Z,66.1
2018-08-12T11:15:15.077Z,65.3
2018-08-12T11:16:06.549Z,64.3
2018-08-12T11:16:56.321Z,63.3
2018-08-12T11:17:46.732Z,62.6
2018-08-12T11:18:36.749Z,62.1
2018-08-12T11:19:26.581Z,61.9
2018-08-12T11:20:16.883Z,61.8
2018-08-12T11:21:06.656Z,61.6
2018-08-12T11:21:57.051Z,61.4
2018-08-12T11:22:47.387Z,61.1
2018-08-12T11:23:37.105Z,61
2018-08-12T11:24:26.915Z,61.6
2018-08-12T11:25:17.243Z,62.8
2018-08-12T11:26:07.077Z,64
2018-08-12T11:26:57.414Z,64.6
2018-08-12T11:27:46.654Z,64.8
2018-08-12T11:28:38.881Z,64.8
2018-08-12T11:29:27.615Z,65
2018-08-12T11:30:17.627Z,65.3
2018-08-12T11:31:08.088Z,65.6
2018-08-12T11:31:57.214Z,65.9
2018-08-12T11:32:47.299Z,66.1
2018-08-12T11:33:37.613Z,66.3
2018-08-12T11:34:28.266Z,66.4
2018-08-12T11:35:18.036Z,66.6
2018-08-12T11:36:07.620Z,66.6
2018-08-12T11:36:57.894Z,66.8
2018-08-12T11:37:48.548Z,66.8
2018-08-12T11:38:38.280Z,66.6
2018-08-12T11:39:28.344Z,66.5
2018-08-12T11:40:18.472Z,66.6
2018-08-12T11:41:08.824Z,66.6
2018-08-12T11:41:57.996Z,66.7
2018-08-12T11:42:48.907Z,66.8
2018-08-12T11:43:37.521Z,66.9
2018-08-12T11:44:28.466Z,67
2018-08-12T11:45:19.137Z,67.1
2018-08-12T11:46:08.888Z,67.1
2018-08-12T11:46:58.907Z,67.1
2018-08-12T11:47:49.277Z,67.1
2018-08-12T11:48:39.310Z,67.1
2018-08-12T11:49:29.115Z,67.1
2018-08-12T11:50:18.084Z,67.1
2018-08-12T11:51:09.541Z,67.1
2018-08-12T11:51:59.581Z,67.1
2018-08-12T11:52:49.110Z,67.1
2018-08-12T11:53:39.774Z,67.1
2018-08-12T11:54:29.248Z,67.1
2018-08-12T11:55:19.323Z,67.1
2018-08-12T11:56:09.440Z,67.1
2018-08-12T11:57:00.480Z,67.1
2018-08-12T11:57:49.342Z,67.1
2018-08-12T11:58:39.596Z,67.2
2018-08-12T11:59:29.957Z,67.3
2018-08-12T12:00:18.873Z,67.3
2018-08-12T12:01:10.079Z,67.3
2018-08-12T12:01:59.835Z,67.4